createdAt,value
2018-03-02T00:00:03.055Z,34.70
2018-03-02T00:01:03.056Z,32.00
2018-03-02T00:02:24.043Z,32.50
2018-03-02T00:03:03.008Z,32.10
2018-03-02T00:04:03.023Z,31.40
2018-03-02T00:05:03.011Z,32.20
2018-03-02T00:06:02.993Z,31.60
2018-03-02T00:07:02.982Z,34.30
2018-03-02T00:08:23.961Z,31.10
2018-03-02T00:09:02.964Z,33.30
2018-03-02T00:10:02.976Z,32.50
2018-03-02T00:11:02.937Z,32.30
2018-03-02T00:12:02.918Z,30.90
2018-03-02T00:13:02.920Z,33.80
2018-03-02T00:14:23.897Z,31.80
2018-03-02T00:15:02.884Z,33.70
2018-03-02T00:16:02.876Z,32.20
2018-03-02T00:17:02.883Z,34.90
2018-03-02T00:18:02.843Z,33.90
2018-03-02T00:19:02.832Z,32.70
2018-03-02T00:20:23.825Z,29.70
2018-03-02T00:21:02.817Z,33.20
2018-03-02T00:22:02.805Z,33.10
2018-03-02T00:23:02.822Z,33.90
2018-03-02T00:24:02.780Z,33.60
2018-03-02T00:25:02.766Z,32.60
2018-03-02T00:26:23.760Z,33.70
2018-03-02T00:27:02.738Z,36.30
2018-03-02T00:28:02.722Z,34.80
2018-03-02T00:29:02.710Z,35.00
2018-03-02T00:30:02.701Z,36.10
2018-03-02T00:31:02.693Z,32.60
2018-03-02T00:32:23.695Z,36.00
2018-03-02T00:33:03.604Z,34.10
2018-03-02T00:34:02.653Z,32.70
2018-03-02T00:35:02.642Z,31.70
2018-03-02T00:36:02.632Z,32.40
2018-03-02T00:37:02.624Z,32.30
2018-03-02T00:38:23.611Z,30.90
2018-03-02T00:39:02.581Z,34.20
2018-03-02T00:40:02.611Z,33.70
2018-03-02T00:41:03.805Z,34.10
2018-03-02T00:42:02.562Z,32.00
2018-03-02T00:43:02.553Z,32.80
2018-03-02T00:44:23.530Z,33.60
2018-03-02T00:45:02.513Z,33.10
2018-03-02T00:46:02.531Z,33.30
2018-03-02T00:47:02.507Z,36.00
2018-03-02T00:48:03.686Z,35.20
2018-03-02T00:49:02.469Z,32.90
2018-03-02T00:50:23.468Z,34.60
2018-03-02T00:51:02.465Z,32.60
2018-03-02T00:52:02.464Z,34.40
2018-03-02T00:53:02.430Z,34.40
2018-03-02T00:54:02.406Z,33.80
2018-03-02T00:55:02.400Z,33.70
2018-03-02T00:56:23.395Z,33.20
2018-03-02T00:57:02.402Z,34.30
2018-03-02T00:58:02.369Z,36.10
2018-03-02T00:59:02.357Z,34.80
2018-03-02T01:00:02.330Z,33.10
2018-03-02T01:01:02.326Z,33.90
2018-03-02T01:02:23.315Z,34.20
2018-03-02T01:03:02.306Z,35.20
2018-03-02T01:04:02.301Z,33.80
2018-03-02T01:05:02.266Z,31.40
2018-03-02T01:06:02.271Z,36.10
2018-03-02T01:07:02.251Z,33.50
2018-03-02T01:08:23.251Z,33.00
2018-03-02T01:09:02.232Z,34.60
2018-03-02T01:10:02.214Z,35.60
2018-03-02T01:11:02.203Z,37.60
2018-03-02T01:12:02.214Z,34.10
2018-03-02T01:13:02.177Z,36.20
2018-03-02T01:14:23.170Z,32.80
2018-03-02T01:15:02.157Z,34.30
2018-03-02T01:16:02.132Z,37.90
2018-03-02T01:17:02.137Z,37.30
2018-03-02T01:18:02.109Z,34.50
2018-03-02T01:19:02.106Z,35.30
2018-03-02T01:20:23.097Z,33.20
2018-03-02T01:21:02.081Z,35.50
2018-03-02T01:22:02.075Z,34.80
2018-03-02T01:23:02.054Z,36.80
2018-03-02T01:24:02.036Z,34.10
2018-03-02T01:25:03.265Z,33.70
2018-03-02T01:26:23.016Z,32.70
2018-03-02T01:27:02.003Z,32.90
2018-03-02T01:28:01.987Z,35.30
2018-03-02T01:29:01.985Z,35.30
2018-03-02T01:30:01.974Z,35.20
2018-03-02T01:31:01.958Z,35.80
2018-03-02T01:32:22.958Z,38.90
2018-03-02T01:33:01.947Z,36.70
2018-03-02T01:34:01.929Z,38.10
2018-03-02T01:35:01.916Z,37.80
2018-03-02T01:36:01.893Z,34.80
2018-03-02T01:37:01.882Z,34.00
2018-03-02T01:38:22.866Z,34.20
2018-03-02T01:39:01.876Z,36.30
2018-03-02T01:40:01.860Z,35.90
2018-03-02T01:41:01.837Z,36.10
2018-03-02T01:42:01.838Z,37.30
2018-03-02T01:43:01.806Z,38.30
2018-03-02T01:44:22.811Z,38.10
2018-03-02T01:45:01.793Z,34.70
2018-03-02T01:46:01.762Z,37.80
2018-03-02T01:47:01.763Z,37.50
2018-03-02T01:48:01.745Z,33.80
2018-03-02T01:49:01.739Z,34.80
2018-03-02T01:50:22.728Z,35.10
2018-03-02T01:51:01.708Z,34.90
2018-03-02T01:52:01.699Z,36.50
2018-03-02T01:53:01.680Z,35.90
2018-03-02T01:54:01.674Z,35.30
2018-03-02T01:55:01.657Z,36.00
2018-03-02T01:56:22.659Z,37.30
2018-03-02T01:57:01.639Z,33.90
2018-03-02T01:58:01.617Z,34.60
2018-03-02T01:59:01.619Z,37.90
2018-03-02T02:00:01.701Z,36.70
2018-03-02T02:01:01.583Z,34.90
2018-03-02T02:02:22.588Z,33.90
2018-03-02T02:03:01.561Z,37.30
2018-03-02T02:04:01.553Z,35.30
2018-03-02T02:05:01.543Z,38.80
2018-03-02T02:06:01.522Z,34.30
2018-03-02T02:07:01.508Z,35.40
2018-03-02T02:08:22.501Z,35.40
2018-03-02T02:09:01.487Z,35.00
2018-03-02T02:10:01.487Z,36.40
2018-03-02T02:11:02.248Z,36.30
2018-03-02T02:12:01.448Z,34.80
2018-03-02T02:13:01.446Z,37.10
2018-03-02T02:14:22.444Z,37.90
2018-03-02T02:15:02.392Z,36.10
2018-03-02T02:16:01.402Z,38.50
2018-03-02T02:17:01.411Z,35.80
2018-03-02T02:18:01.375Z,34.20
2018-03-02T02:19:01.376Z,33.90
2018-03-02T02:20:22.375Z,34.50
2018-03-02T02:21:01.375Z,33.70
2018-03-02T02:22:01.318Z,36.50
2018-03-02T02:23:01.342Z,35.50
2018-03-02T02:24:01.340Z,34.70
2018-03-02T02:25:01.299Z,35.20
2018-03-02T02:26:22.276Z,35.10
2018-03-02T02:27:01.272Z,33.90
2018-03-02T02:28:01.300Z,35.80
2018-03-02T02:29:01.306Z,36.60
2018-03-02T02:30:01.280Z,34.50
2018-03-02T02:31:01.290Z,36.00
2018-03-02T02:32:22.227Z,35.90
2018-03-02T02:33:01.263Z,35.80
2018-03-02T02:34:01.264Z,34.90
2018-03-02T02:35:01.216Z,36.20
2018-03-02T02:36:01.175Z,37.70
2018-03-02T02:37:01.190Z,35.20
2018-03-02T02:38:22.153Z,37.90
2018-03-02T02:39:01.172Z,35.20
2018-03-02T02:40:01.204Z,35.40
2018-03-02T02:41:01.103Z,36.00
2018-03-02T02:42:01.166Z,36.30
2018-03-02T02:43:01.102Z,38.50
2018-03-02T02:44:22.076Z,36.30
2018-03-02T02:45:01.093Z,38.10
2018-03-02T02:46:01.040Z,36.60
2018-03-02T02:47:01.045Z,36.20
2018-03-02T02:48:01.047Z,37.20
2018-03-02T02:49:01.694Z,35.50
2018-03-02T02:50:21.995Z,35.20
2018-03-02T02:51:00.987Z,35.20
2018-03-02T02:52:00.977Z,36.10
2018-03-02T02:53:00.955Z,37.80
2018-03-02T02:54:00.955Z,35.30
2018-03-02T02:55:00.944Z,35.80
2018-03-02T02:56:21.919Z,36.20
2018-03-02T02:57:00.917Z,35.00
2018-03-02T02:58:00.895Z,37.80
2018-03-02T02:59:00.885Z,34.90
2018-03-02T03:00:00.865Z,38.10
2018-03-02T03:01:00.856Z,35.60
2018-03-02T03:02:21.841Z,35.10
2018-03-02T03:03:00.831Z,38.40
2018-03-02T03:04:00.819Z,35.50
2018-03-02T03:05:00.806Z,35.60
2018-03-02T03:06:00.793Z,36.60
2018-03-02T03:07:00.772Z,36.60
2018-03-02T03:08:21.762Z,35.00
2018-03-02T03:09:00.752Z,36.20
2018-03-02T03:10:00.725Z,34.90
2018-03-02T03:11:00.727Z,37.60
2018-03-02T03:12:00.716Z,37.80
2018-03-02T03:13:00.689Z,35.00
2018-03-02T03:14:21.683Z,36.40
2018-03-02T03:15:00.682Z,33.80
2018-03-02T03:16:00.659Z,35.50
2018-03-02T03:17:00.655Z,35.50
2018-03-02T03:18:00.622Z,36.40
2018-03-02T03:19:00.621Z,37.60
2018-03-02T03:20:21.619Z,33.90
2018-03-02T03:21:00.595Z,36.30
2018-03-02T03:22:00.584Z,35.90
2018-03-02T03:23:00.564Z,35.60
2018-03-02T03:24:00.553Z,35.70
2018-03-02T03:25:00.540Z,34.40
2018-03-02T03:26:21.531Z,35.60
2018-03-02T03:27:00.520Z,33.20
2018-03-02T03:28:00.512Z,37.30
2018-03-02T03:29:00.486Z,35.00
2018-03-02T03:30:00.489Z,36.00
2018-03-02T03:31:00.460Z,35.90
2018-03-02T03:32:21.456Z,34.70
2018-03-02T03:33:00.446Z,34.80
2018-03-02T03:34:00.433Z,37.90
2018-03-02T03:35:00.414Z,44.30
2018-03-02T03:36:00.407Z,36.50
2018-03-02T03:37:00.392Z,35.30
2018-03-02T03:38:21.387Z,36.40
2018-03-02T03:39:00.382Z,34.70
2018-03-02T03:40:00.358Z,35.20
2018-03-02T03:41:00.318Z,35.40
2018-03-02T03:42:00.327Z,35.40
2018-03-02T03:43:00.306Z,35.90
2018-03-02T03:44:21.300Z,35.40
2018-03-02T03:45:00.299Z,35.70
2018-03-02T03:46:00.283Z,35.40
2018-03-02T03:47:00.246Z,36.70
2018-03-02T03:48:00.261Z,37.30
2018-03-02T03:49:00.234Z,35.40
2018-03-02T03:50:21.216Z,38.10
2018-03-02T03:51:00.223Z,37.70
2018-03-02T03:52:00.191Z,37.70
2018-03-02T03:53:00.183Z,35.70
2018-03-02T03:54:00.167Z,36.30
2018-03-02T03:55:00.158Z,36.60
2018-03-02T03:56:21.149Z,35.10
2018-03-02T03:57:00.934Z,36.80
2018-03-02T03:58:00.109Z,34.60
2018-03-02T03:59:00.112Z,36.00
2018-03-02T04:00:00.128Z,39.60
2018-03-02T04:01:00.084Z,33.80
2018-03-02T04:02:21.073Z,36.50
2018-03-02T04:03:00.054Z,35.10
2018-03-02T04:04:00.038Z,37.30
2018-03-02T04:05:00.044Z,36.60
2018-03-02T04:06:00.009Z,34.60
2018-03-02T04:07:00.003Z,37.30
2018-03-02T04:08:20.986Z,36.50
2018-03-02T04:08:59.970Z,34.30
2018-03-02T04:09:59.967Z,36.90
2018-03-02T04:10:59.940Z,37.10
2018-03-02T04:11:59.941Z,35.60
2018-03-02T04:12:59.934Z,34.60
2018-03-02T04:14:20.912Z,37.80
2018-03-02T04:14:59.903Z,33.50
2018-03-02T04:15:59.893Z,34.60
2018-03-02T04:17:02.143Z,37.50
2018-03-02T04:17:59.848Z,37.00
2018-03-02T04:18:59.840Z,36.30
2018-03-02T04:20:20.832Z,36.40
2018-03-02T04:20:59.825Z,36.60
2018-03-02T04:21:59.806Z,34.40
2018-03-02T04:22:59.799Z,37.80
2018-03-02T04:23:59.783Z,38.30
2018-03-02T04:24:59.764Z,37.70
2018-03-02T04:26:20.765Z,36.30
2018-03-02T04:26:59.748Z,36.80
2018-03-02T04:27:59.734Z,38.30
2018-03-02T04:28:59.708Z,38.10
2018-03-02T04:29:59.704Z,41.30
2018-03-02T04:30:59.696Z,34.80
2018-03-02T04:32:20.684Z,36.80
2018-03-02T04:32:59.668Z,34.70
2018-03-02T04:33:59.645Z,34.90
2018-03-02T04:34:59.648Z,36.00
2018-03-02T04:35:59.636Z,37.50
2018-03-02T04:36:59.611Z,35.10
2018-03-02T04:38:20.606Z,38.20
2018-03-02T04:38:59.599Z,35.50
2018-03-02T04:39:59.579Z,35.20
2018-03-02T04:40:59.547Z,35.60
2018-03-02T04:41:59.553Z,36.60
2018-03-02T04:42:59.534Z,36.70
2018-03-02T04:44:20.536Z,36.50
2018-03-02T04:44:59.508Z,37.90
2018-03-02T04:45:59.498Z,35.60
2018-03-02T04:46:59.471Z,33.70
2018-03-02T04:47:59.477Z,37.40
2018-03-02T04:48:59.460Z,38.00
2018-03-02T04:50:20.449Z,38.40
2018-03-02T04:50:59.462Z,33.60
2018-03-02T04:51:59.452Z,35.60
2018-03-02T04:52:59.420Z,36.20
2018-03-02T04:53:59.390Z,35.70
2018-03-02T04:54:59.396Z,37.70
2018-03-02T04:56:20.369Z,34.90
2018-03-02T04:56:59.367Z,35.30
2018-03-02T04:57:59.356Z,35.90
2018-03-02T04:58:59.321Z,36.00
2018-03-02T04:59:59.306Z,35.70
2018-03-02T05:00:59.313Z,35.80
2018-03-02T05:02:20.272Z,34.80
2018-03-02T05:02:59.276Z,34.60
2018-03-02T05:03:59.272Z,37.60
2018-03-02T05:04:59.243Z,36.10
2018-03-02T05:05:59.237Z,35.70
2018-03-02T05:06:59.228Z,37.40
2018-03-02T05:08:20.840Z,35.50
2018-03-02T05:08:59.205Z,35.60
2018-03-02T05:09:59.201Z,34.50
2018-03-02T05:10:59.172Z,38.40
2018-03-02T05:11:59.140Z,34.00
2018-03-02T05:12:59.151Z,37.50
2018-03-02T05:14:20.137Z,34.80
2018-03-02T05:14:59.945Z,38.70
2018-03-02T05:15:59.112Z,37.60
2018-03-02T05:16:59.097Z,36.50
2018-03-02T05:17:59.070Z,33.90
2018-03-02T05:18:59.065Z,34.60
2018-03-02T05:20:20.108Z,35.60
2018-03-02T05:20:59.052Z,34.50
2018-03-02T05:21:59.026Z,34.80
2018-03-02T05:22:59.018Z,35.40
2018-03-02T05:23:58.995Z,34.40
2018-03-02T05:24:59.809Z,38.70
2018-03-02T05:26:19.983Z,35.60
2018-03-02T05:26:58.959Z,34.70
2018-03-02T05:27:58.946Z,35.50
2018-03-02T05:28:58.938Z,36.60
2018-03-02T05:30:00.241Z,36.70
2018-03-02T05:30:58.919Z,36.50
2018-03-02T05:32:19.899Z,37.10
2018-03-02T05:32:58.888Z,38.10
2018-03-02T05:33:58.869Z,37.70
2018-03-02T05:34:59.722Z,38.10
2018-03-02T05:35:58.857Z,37.70
2018-03-02T05:36:58.821Z,35.50
2018-03-02T05:38:19.816Z,35.10
2018-03-02T05:38:58.804Z,35.70
2018-03-02T05:39:59.657Z,37.00
2018-03-02T05:40:58.783Z,35.90
2018-03-02T05:41:58.774Z,37.00
2018-03-02T05:42:58.760Z,36.20
2018-03-02T05:44:19.750Z,35.60
2018-03-02T05:44:58.735Z,36.80
2018-03-02T05:45:58.718Z,38.00
2018-03-02T05:46:58.707Z,41.00
2018-03-02T05:47:58.690Z,35.90
2018-03-02T05:48:58.678Z,36.90
2018-03-02T05:50:19.661Z,36.40
2018-03-02T05:50:58.648Z,36.80
2018-03-02T05:51:59.444Z,35.00
2018-03-02T05:52:58.633Z,36.80
2018-03-02T05:53:58.609Z,36.40
2018-03-02T05:54:58.588Z,36.20
2018-03-02T05:56:19.590Z,35.60
2018-03-02T05:56:58.580Z,37.10
2018-03-02T05:57:58.564Z,34.00
2018-03-02T05:58:58.545Z,35.80
2018-03-02T05:59:58.535Z,37.40
2018-03-02T06:00:58.525Z,36.50
2018-03-02T06:02:19.513Z,37.40
2018-03-02T06:02:58.502Z,36.20
2018-03-02T06:03:58.471Z,35.80
2018-03-02T06:04:58.460Z,34.70
2018-03-02T06:05:58.456Z,35.20
2018-03-02T06:06:58.438Z,36.10
2018-03-02T06:08:19.445Z,35.90
2018-03-02T06:08:58.428Z,33.70
2018-03-02T06:09:58.406Z,36.00
2018-03-02T06:10:58.399Z,37.30
2018-03-02T06:11:58.398Z,35.60
2018-03-02T06:12:58.378Z,35.80
2018-03-02T06:14:19.342Z,36.10
2018-03-02T06:14:58.342Z,38.50
2018-03-02T06:15:58.332Z,39.60
2018-03-02T06:16:58.334Z,35.60
2018-03-02T06:17:58.283Z,34.70
2018-03-02T06:18:58.302Z,38.40
2018-03-02T06:20:19.258Z,37.50
2018-03-02T06:20:58.283Z,37.50
2018-03-02T06:21:58.257Z,34.60
2018-03-02T06:22:58.233Z,37.60
2018-03-02T06:23:58.235Z,37.90
2018-03-02T06:24:58.225Z,36.90
2018-03-02T06:26:19.191Z,35.80
2018-03-02T06:26:58.191Z,35.60
2018-03-02T06:27:58.216Z,37.50
2018-03-02T06:28:58.152Z,39.30
2018-03-02T06:29:58.159Z,35.90
2018-03-02T06:30:58.141Z,35.30
2018-03-02T06:32:19.114Z,35.70
2018-03-02T06:32:58.119Z,37.90
2018-03-02T06:33:58.111Z,35.00
2018-03-02T06:34:58.137Z,36.90
2018-03-02T06:35:58.090Z,36.40
2018-03-02T06:36:58.112Z,38.30
2018-03-02T06:38:19.860Z,38.10
2018-03-02T06:38:58.082Z,38.30
2018-03-02T06:39:58.071Z,36.00
2018-03-02T06:40:58.041Z,36.70
2018-03-02T06:41:57.997Z,37.80
2018-03-02T06:42:58.032Z,36.10
2018-03-02T06:44:20.168Z,37.60
2018-03-02T06:44:58.007Z,38.10
2018-03-02T06:45:57.975Z,38.10
2018-03-02T06:46:57.961Z,37.90
2018-03-02T06:47:57.954Z,37.10
2018-03-02T06:48:57.927Z,39.90
2018-03-02T06:50:18.882Z,36.30
2018-03-02T06:50:57.890Z,36.40
2018-03-02T06:51:57.889Z,37.50
2018-03-02T06:52:57.863Z,38.50
2018-03-02T06:53:57.849Z,38.70
2018-03-02T06:54:57.810Z,35.70
2018-03-02T06:56:18.795Z,36.10
2018-03-02T06:56:57.809Z,36.40
2018-03-02T06:57:58.695Z,34.90
2018-03-02T06:58:57.768Z,36.20
2018-03-02T06:59:57.773Z,35.90
2018-03-02T07:00:57.750Z,37.50
2018-03-02T07:02:19.874Z,37.20
2018-03-02T07:02:57.706Z,39.30
2018-03-02T07:03:57.729Z,36.10
2018-03-02T07:04:57.678Z,38.20
2018-03-02T07:05:57.685Z,38.80
2018-03-02T07:06:57.645Z,39.40
2018-03-02T07:08:18.660Z,37.50
2018-03-02T07:08:57.627Z,35.40
2018-03-02T07:09:57.631Z,35.80
2018-03-02T07:10:57.611Z,35.50
2018-03-02T07:11:57.588Z,38.20
2018-03-02T07:12:59.697Z,36.70
2018-03-02T07:14:19.263Z,37.10
2018-03-02T07:14:57.574Z,35.90
2018-03-02T07:15:57.534Z,36.40
2018-03-02T07:16:58.674Z,35.10
2018-03-02T07:17:57.518Z,37.30
2018-03-02T07:18:57.509Z,36.90
2018-03-02T07:20:18.511Z,38.50
2018-03-02T07:20:57.516Z,34.70
2018-03-02T07:21:57.455Z,36.00
2018-03-02T07:22:57.457Z,36.90
2018-03-02T07:23:57.524Z,36.70
2018-03-02T07:24:57.439Z,41.20
2018-03-02T07:26:18.428Z,37.00
2018-03-02T07:26:57.420Z,36.50
2018-03-02T07:27:57.380Z,40.70
2018-03-02T07:28:57.361Z,37.60
2018-03-02T07:29:57.351Z,39.50
2018-03-02T07:30:57.344Z,36.50
2018-03-02T07:32:18.353Z,35.90
2018-03-02T07:32:57.330Z,38.40
2018-03-02T07:33:57.292Z,35.30
2018-03-02T07:34:57.292Z,37.30
2018-03-02T07:35:57.256Z,36.00
2018-03-02T07:36:57.270Z,35.60
2018-03-02T07:38:18.274Z,39.30
2018-03-02T07:38:57.230Z,35.80
2018-03-02T07:39:57.234Z,38.40
2018-03-02T07:40:57.208Z,35.90
2018-03-02T07:41:57.202Z,34.20
2018-03-02T07:42:57.177Z,38.60
2018-03-02T07:44:18.245Z,37.30
2018-03-02T07:44:57.160Z,36.50
2018-03-02T07:45:57.117Z,35.90
2018-03-02T07:46:57.133Z,37.10
2018-03-02T07:47:57.121Z,39.00
2018-03-02T07:48:57.117Z,36.70
2018-03-02T07:50:18.142Z,34.60
2018-03-02T07:50:57.211Z,34.90
2018-03-02T07:51:57.068Z,36.80
2018-03-02T07:52:57.057Z,36.00
2018-03-02T07:53:57.038Z,37.10
2018-03-02T07:54:57.032Z,40.30
2018-03-02T07:56:18.075Z,38.20
2018-03-02T07:56:57.840Z,38.10
2018-03-02T07:57:56.994Z,39.20
2018-03-02T07:58:56.974Z,36.80
2018-03-02T07:59:56.958Z,38.50
2018-03-02T08:00:56.970Z,37.00
2018-03-02T08:02:17.961Z,36.30
2018-03-02T08:02:56.913Z,38.50
2018-03-02T08:03:57.682Z,37.50
2018-03-02T08:04:56.898Z,36.40
2018-03-02T08:05:56.892Z,38.60
2018-03-02T08:06:56.879Z,38.00
2018-03-02T08:08:17.884Z,36.60
2018-03-02T08:08:56.852Z,36.10
2018-03-02T08:09:57.381Z,38.70
2018-03-02T08:10:56.819Z,38.20
2018-03-02T08:11:56.807Z,36.40
2018-03-02T08:12:56.804Z,37.30
2018-03-02T08:14:18.770Z,37.50
2018-03-02T08:14:56.749Z,38.30
2018-03-02T08:15:56.767Z,38.80
2018-03-02T08:16:56.734Z,37.60
2018-03-02T08:17:56.726Z,39.20
2018-03-02T08:18:56.724Z,37.50
2018-03-02T08:20:17.717Z,38.90
2018-03-02T08:20:56.699Z,38.20
2018-03-02T08:21:56.688Z,40.60
2018-03-02T08:22:56.672Z,38.60
2018-03-02T08:23:56.676Z,37.90
2018-03-02T08:24:56.656Z,39.50
2018-03-02T08:26:17.676Z,40.00
2018-03-02T08:26:56.627Z,35.10
2018-03-02T08:27:57.187Z,38.50
2018-03-02T08:28:56.601Z,36.50
2018-03-02T08:29:56.578Z,37.30
2018-03-02T08:30:56.575Z,37.00
2018-03-02T08:32:17.567Z,38.40
2018-03-02T08:32:56.549Z,37.60
2018-03-02T08:33:56.531Z,36.20
2018-03-02T08:34:56.518Z,36.60
2018-03-02T08:35:56.515Z,38.20
2018-03-02T08:36:56.496Z,35.70
2018-03-02T08:38:17.478Z,37.30
2018-03-02T08:38:56.461Z,38.00
2018-03-02T08:39:56.464Z,38.30
2018-03-02T08:40:56.445Z,38.50
2018-03-02T08:41:56.437Z,37.50
2018-03-02T08:42:56.461Z,37.60
2018-03-02T08:44:17.407Z,36.30
2018-03-02T08:44:56.397Z,38.20
2018-03-02T08:45:56.385Z,37.90
2018-03-02T08:46:56.360Z,38.30
2018-03-02T08:47:56.367Z,39.00
2018-03-02T08:48:56.348Z,39.60
2018-03-02T08:50:17.324Z,37.80
2018-03-02T08:50:57.223Z,37.30
2018-03-02T08:51:56.303Z,37.10
2018-03-02T08:52:56.283Z,36.60
2018-03-02T08:53:56.288Z,36.90
2018-03-02T08:54:56.264Z,36.50
2018-03-02T08:56:17.270Z,37.20
2018-03-02T08:56:56.249Z,36.30
2018-03-02T08:57:56.217Z,35.40
2018-03-02T08:58:56.222Z,39.70
2018-03-02T08:59:56.213Z,38.10
2018-03-02T09:00:56.203Z,37.80
2018-03-02T09:02:17.172Z,36.90
2018-03-02T09:02:56.163Z,35.90
2018-03-02T09:03:56.157Z,39.30
2018-03-02T09:04:56.932Z,37.80
2018-03-02T09:05:56.130Z,37.10
2018-03-02T09:06:56.127Z,38.90
2018-03-02T09:08:17.099Z,37.00
2018-03-02T09:08:56.092Z,38.20
2018-03-02T09:09:56.090Z,38.50
2018-03-02T09:10:56.069Z,38.10
2018-03-02T09:11:56.042Z,36.50
2018-03-02T09:12:56.032Z,36.90
2018-03-02T09:14:17.021Z,39.60
2018-03-02T09:14:56.017Z,37.00
2018-03-02T09:15:56.020Z,37.50
2018-03-02T09:16:56.000Z,38.20
2018-03-02T09:17:55.977Z,37.60
2018-03-02T09:18:55.958Z,37.70
2018-03-02T09:20:16.962Z,37.50
2018-03-02T09:20:55.938Z,38.50
2018-03-02T09:21:55.925Z,35.00
2018-03-02T09:22:55.918Z,37.20
2018-03-02T09:23:57.912Z,36.70
2018-03-02T09:24:55.907Z,38.60
2018-03-02T09:26:16.943Z,37.30
2018-03-02T09:26:55.869Z,37.90
2018-03-02T09:27:55.855Z,36.50
2018-03-02T09:28:55.842Z,36.50
2018-03-02T09:29:56.364Z,36.20
2018-03-02T09:30:55.813Z,39.00
2018-03-02T09:32:16.804Z,37.10
2018-03-02T09:32:55.796Z,35.80
2018-03-02T09:33:55.774Z,39.40
2018-03-02T09:34:55.764Z,36.10
2018-03-02T09:35:55.752Z,42.10
2018-03-02T09:36:55.738Z,38.10
2018-03-02T09:38:16.722Z,38.80
2018-03-02T09:38:55.723Z,40.90
2018-03-02T09:39:55.696Z,42.10
2018-03-02T09:40:55.691Z,38.10
2018-03-02T09:41:55.676Z,38.40
2018-03-02T09:42:55.663Z,40.90
2018-03-02T09:44:16.666Z,36.70
2018-03-02T09:44:55.649Z,40.20
2018-03-02T09:45:55.640Z,39.30
2018-03-02T09:46:55.611Z,38.60
2018-03-02T09:47:55.605Z,40.20
2018-03-02T09:48:55.622Z,41.00
2018-03-02T09:50:16.582Z,38.10
2018-03-02T09:50:55.569Z,39.40
2018-03-02T09:51:55.550Z,41.60
2018-03-02T09:52:55.549Z,40.60
2018-03-02T09:53:55.530Z,37.60
2018-03-02T09:54:55.514Z,37.30
2018-03-02T09:56:16.509Z,38.50
2018-03-02T09:56:55.493Z,37.50
2018-03-02T09:57:55.473Z,37.80
2018-03-02T09:58:55.459Z,38.20
2018-03-02T09:59:55.455Z,41.90
2018-03-02T10:00:55.442Z,38.70
2018-03-02T10:02:16.445Z,40.30
2018-03-02T10:02:55.429Z,39.10
2018-03-02T10:03:55.413Z,40.30
2018-03-02T10:04:55.402Z,39.40
2018-03-02T10:05:55.385Z,42.00
2018-03-02T10:06:55.382Z,39.30
2018-03-02T10:08:16.343Z,41.20
2018-03-02T10:08:55.348Z,37.60
2018-03-02T10:09:55.342Z,40.10
2018-03-02T10:10:55.322Z,37.20
2018-03-02T10:11:55.320Z,40.00
2018-03-02T10:12:55.305Z,39.10
2018-03-02T10:14:16.290Z,39.80
2018-03-02T10:14:55.283Z,40.90
2018-03-02T10:15:55.260Z,43.10
2018-03-02T10:16:55.262Z,39.90
2018-03-02T10:17:55.234Z,40.00
2018-03-02T10:18:55.232Z,41.80
2018-03-02T10:20:16.218Z,40.90
2018-03-02T10:20:55.210Z,40.40
2018-03-02T10:21:55.206Z,40.20
2018-03-02T10:22:55.182Z,40.90
2018-03-02T10:23:55.176Z,39.40
2018-03-02T10:24:56.068Z,37.60
2018-03-02T10:26:16.148Z,36.90
2018-03-02T10:26:55.113Z,38.90
2018-03-02T10:27:55.135Z,37.90
2018-03-02T10:28:55.120Z,37.70
2018-03-02T10:29:55.110Z,37.90
2018-03-02T10:30:55.088Z,39.00
2018-03-02T10:32:16.109Z,39.40
2018-03-02T10:32:55.049Z,37.60
2018-03-02T10:33:55.056Z,39.40
2018-03-02T10:34:55.045Z,40.70
2018-03-02T10:35:55.031Z,37.90
2018-03-02T10:36:55.022Z,38.30
2018-03-02T10:38:16.002Z,40.00
2018-03-02T10:38:54.992Z,36.40
2018-03-02T10:39:54.971Z,40.10
2018-03-02T10:40:54.965Z,37.10
2018-03-02T10:41:55.761Z,38.90
2018-03-02T10:42:54.942Z,39.90
2018-03-02T10:44:15.936Z,40.30
2018-03-02T10:44:54.924Z,40.50
2018-03-02T10:45:54.897Z,40.20
2018-03-02T10:46:54.888Z,39.70
2018-03-02T10:47:54.896Z,40.50
2018-03-02T10:48:54.879Z,44.70
2018-03-02T10:50:15.858Z,41.20
2018-03-02T10:50:55.766Z,41.10
2018-03-02T10:51:54.838Z,42.10
2018-03-02T10:52:54.824Z,40.20
2018-03-02T10:53:54.820Z,40.80
2018-03-02T10:54:54.824Z,39.90
2018-03-02T10:56:15.805Z,40.10
2018-03-02T10:56:54.775Z,39.90
2018-03-02T10:57:54.774Z,41.90
2018-03-02T10:58:54.758Z,37.80
2018-03-02T10:59:54.740Z,39.00
2018-03-02T11:00:54.729Z,40.60
2018-03-02T11:02:15.757Z,39.20
2018-03-02T11:02:54.706Z,38.40
2018-03-02T11:03:54.709Z,41.20
2018-03-02T11:04:54.677Z,41.40
2018-03-02T11:05:54.667Z,40.40
2018-03-02T11:06:54.663Z,41.30
2018-03-02T11:08:15.661Z,41.30
2018-03-02T11:08:54.659Z,39.10
2018-03-02T11:09:55.582Z,37.00
2018-03-02T11:10:54.617Z,38.70
2018-03-02T11:11:54.606Z,40.80
2018-03-02T11:12:54.585Z,39.60
2018-03-02T11:14:15.579Z,40.90
2018-03-02T11:14:54.573Z,42.90
2018-03-02T11:15:54.561Z,40.80
2018-03-02T11:16:54.547Z,39.60
2018-03-02T11:17:54.529Z,39.60
2018-03-02T11:18:54.527Z,39.90
2018-03-02T11:20:15.509Z,43.40
2018-03-02T11:20:54.493Z,39.80
2018-03-02T11:21:54.490Z,38.90
2018-03-02T11:22:54.478Z,40.20
2018-03-02T11:23:54.467Z,40.20
2018-03-02T11:24:54.456Z,40.80
2018-03-02T11:26:15.439Z,39.50
2018-03-02T11:26:54.409Z,39.00
2018-03-02T11:27:54.424Z,42.30
2018-03-02T11:28:54.402Z,42.00
2018-03-02T11:29:54.391Z,43.70
2018-03-02T11:30:54.403Z,41.60
2018-03-02T11:32:15.378Z,40.60
2018-03-02T11:32:54.378Z,37.80
2018-03-02T11:33:54.358Z,41.10
2018-03-02T11:34:54.325Z,41.60
2018-03-02T11:35:54.332Z,38.60
2018-03-02T11:36:54.315Z,41.70
2018-03-02T11:38:15.299Z,44.10
2018-03-02T11:38:54.285Z,48.90
2018-03-02T11:39:54.288Z,51.30
2018-03-02T11:40:54.280Z,53.00
2018-03-02T11:41:54.259Z,48.60
2018-03-02T11:42:54.277Z,44.70
2018-03-02T11:44:15.252Z,43.00
2018-03-02T11:44:54.235Z,40.20
2018-03-02T11:45:54.232Z,40.80
2018-03-02T11:46:54.203Z,40.30
2018-03-02T11:47:54.196Z,40.30
2018-03-02T11:48:54.799Z,42.10
2018-03-02T11:50:15.168Z,38.10
2018-03-02T11:50:54.155Z,38.20
2018-03-02T11:51:54.156Z,37.50
2018-03-02T11:52:54.133Z,41.50
2018-03-02T11:53:54.111Z,39.70
2018-03-02T11:54:54.135Z,40.00
2018-03-02T11:56:15.128Z,39.10
2018-03-02T11:56:54.087Z,39.20
2018-03-02T11:57:54.080Z,38.60
2018-03-02T11:58:54.100Z,40.10
2018-03-02T11:59:54.060Z,40.40
2018-03-02T12:00:54.052Z,40.10
2018-03-02T12:02:15.032Z,40.00
2018-03-02T12:02:54.031Z,42.60
2018-03-02T12:03:54.026Z,41.00
2018-03-02T12:04:54.027Z,39.60
2018-03-02T12:05:54.003Z,43.90
2018-03-02T12:06:54.007Z,42.60
2018-03-02T12:08:14.988Z,39.80
2018-03-02T12:08:53.949Z,42.20
2018-03-02T12:09:53.928Z,39.10
2018-03-02T12:10:53.942Z,40.90
2018-03-02T12:11:53.973Z,41.10
2018-03-02T12:12:53.935Z,43.00
2018-03-02T12:14:14.902Z,40.60
2018-03-02T12:14:53.895Z,41.50
2018-03-02T12:15:53.919Z,41.70
2018-03-02T12:16:55.400Z,41.60
2018-03-02T12:17:53.861Z,39.60
2018-03-02T12:18:53.865Z,38.70
2018-03-02T12:20:14.845Z,40.80
2018-03-02T12:20:53.863Z,39.00
2018-03-02T12:21:54.411Z,39.80
2018-03-02T12:22:53.804Z,39.70
2018-03-02T12:23:53.836Z,39.00
2018-03-02T12:24:53.859Z,39.80
2018-03-02T12:26:14.809Z,41.30
2018-03-02T12:26:53.799Z,39.30
2018-03-02T12:27:53.792Z,42.90
2018-03-02T12:28:53.787Z,40.40
2018-03-02T12:29:53.745Z,41.50
2018-03-02T12:30:53.767Z,40.60
2018-03-02T12:32:14.700Z,40.00
2018-03-02T12:32:54.456Z,39.40
2018-03-02T12:33:53.704Z,38.50
2018-03-02T12:34:53.736Z,39.60
2018-03-02T12:35:53.685Z,41.10
2018-03-02T12:36:53.693Z,41.80
2018-03-02T12:38:14.644Z,43.00
2018-03-02T12:38:53.646Z,42.60
2018-03-02T12:39:53.619Z,42.20
2018-03-02T12:40:53.617Z,45.10
2018-03-02T12:41:53.596Z,40.30
2018-03-02T12:42:53.590Z,41.20
2018-03-02T12:44:14.572Z,39.40
2018-03-02T12:44:53.583Z,40.50
2018-03-02T12:45:53.578Z,44.80
2018-03-02T12:46:53.536Z,50.50
2018-03-02T12:47:53.548Z,51.10
2018-03-02T12:48:53.522Z,61.50
2018-03-02T12:50:14.525Z,57.10
2018-03-02T12:50:53.486Z,49.70
2018-03-02T12:51:53.488Z,47.80